Terminal Aerodrome Forecast
Issued by NWS Central Illinois

Home | Current Version | Previous Version | Text Only | Print | Product List | Glossary On
Versions: 1 2 3 4 5 6 7 8 9 10 11 12 13 14 15 16 17 18 19 20 21 22 23
000
FTUS43 KILX 211700 RRA
TAFPIA
TAF
KPIA 211741Z 2118/2218 33013G23KT P6SM BKN040
     FM212300 34006KT P6SM BKN040
      TEMPO 2123/2201 SCT040
     FM220100 36004KT P6SM SCT040
     FM220500 36003KT P6SM SKC
     FM221500 36005KT P6SM FEW040=

USA.gov is the U.S. government's official web portal to all federal, state and local government web resources and services.